createdAt,value
2023-03-29T00:00:00.945Z,4.70
2023-03-29T00:03:02.388Z,5.00
2023-03-29T00:05:51.152Z,4.80
2023-03-29T00:08:40.077Z,4.47
2023-03-29T00:11:28.735Z,5.10
2023-03-29T00:14:17.367Z,4.13
2023-03-29T00:17:08.010Z,4.37
2023-03-29T00:19:56.632Z,4.10
2023-03-29T00:22:47.086Z,4.30
2023-03-29T00:25:35.678Z,4.30
2023-03-29T00:28:24.885Z,4.20
2023-03-29T00:31:17.556Z,4.67
2023-03-29T00:34:07.828Z,4.17
2023-03-29T00:36:58.196Z,4.33
2023-03-29T00:39:47.750Z,4.10
2023-03-29T00:42:36.398Z,3.80
2023-03-29T00:45:27.938Z,3.47
2023-03-29T00:48:20.404Z,4.20
2023-03-29T00:51:14.300Z,4.03
2023-03-29T00:54:06.786Z,3.63
2023-03-29T00:56:55.544Z,4.00
2023-03-29T00:59:46.752Z,3.63
2023-03-29T01:02:40.151Z,3.47
2023-03-29T01:05:33.809Z,4.00
2023-03-29T01:08:27.828Z,3.90
2023-03-29T01:11:19.327Z,4.20
2023-03-29T01:14:13.397Z,3.57
2023-03-29T01:17:02.491Z,3.80
2023-03-29T01:19:58.997Z,3.47
2023-03-29T01:23:02.991Z,3.73
2023-03-29T01:26:03.846Z,3.03
2023-03-29T01:29:00.847Z,3.57
2023-03-29T01:31:54.044Z,3.57
2023-03-29T01:34:49.436Z,3.10
2023-03-29T01:37:42.515Z,3.13
2023-03-29T01:40:34.610Z,3.57
2023-03-29T01:43:27.138Z,3.10
2023-03-29T01:46:24.946Z,3.70
2023-03-29T01:49:20.598Z,3.30
2023-03-29T01:52:15.799Z,3.03
2023-03-29T01:55:11.104Z,3.60
2023-03-29T01:58:02.011Z,3.30
2023-03-29T02:00:54.301Z,3.10
2023-03-29T02:03:50.382Z,3.50
2023-03-29T02:06:40.468Z,3.53
2023-03-29T02:09:31.247Z,3.43
2023-03-29T02:12:20.653Z,3.30
2023-03-29T02:15:14.021Z,3.90
2023-03-29T02:18:03.870Z,3.60
2023-03-29T02:20:56.107Z,3.97
2023-03-29T02:23:48.943Z,3.63
2023-03-29T02:26:38.135Z,3.50
2023-03-29T02:29:27.704Z,4.17
2023-03-29T02:32:20.630Z,3.50
2023-03-29T02:35:13.996Z,4.03
2023-03-29T02:38:07.400Z,3.87
2023-03-29T02:40:58.876Z,3.77
2023-03-29T02:43:49.819Z,4.30
2023-03-29T02:46:39.158Z,4.10
2023-03-29T02:49:28.547Z,3.97
2023-03-29T02:52:24.061Z,4.97
2023-03-29T02:55:18.753Z,4.53
2023-03-29T02:58:08.788Z,4.37
2023-03-29T03:01:02.499Z,4.30
2023-03-29T03:03:53.093Z,4.20
2023-03-29T03:06:42.682Z,4.00
2023-03-29T03:09:32.239Z,4.67
2023-03-29T03:12:22.538Z,3.93
2023-03-29T03:15:13.463Z,4.40
2023-03-29T03:18:03.819Z,4.37
2023-03-29T03:20:57.602Z,5.30
2023-03-29T03:23:46.315Z,4.83
2023-03-29T03:26:36.018Z,4.80
2023-03-29T03:29:28.369Z,4.93
2023-03-29T03:32:37.943Z,3.97
2023-03-29T03:35:46.378Z,3.97
2023-03-29T03:38:37.017Z,4.17
2023-03-29T03:41:27.465Z,4.17
2023-03-29T03:44:16.525Z,4.23
2023-03-29T03:47:09.541Z,4.67
2023-03-29T03:49:59.255Z,4.60
2023-03-29T03:52:48.645Z,5.40
2023-03-29T03:55:37.305Z,4.40
2023-03-29T03:58:37.274Z,4.20
2023-03-29T04:01:27.304Z,4.70
2023-03-29T04:04:28.174Z,4.83
2023-03-29T04:07:27.682Z,4.43
2023-03-29T04:10:37.421Z,3.80
2023-03-29T04:13:41.570Z,3.97
2023-03-29T04:16:56.921Z,4.00
2023-03-29T04:20:10.268Z,5.30
2023-03-29T04:22:59.003Z,4.53
2023-03-29T04:25:48.118Z,4.00
2023-03-29T04:28:56.414Z,3.90
2023-03-29T04:32:01.537Z,3.80
2023-03-29T04:35:19.528Z,3.63
2023-03-29T04:38:10.454Z,3.53
2023-03-29T04:41:02.062Z,3.77
2023-03-29T04:44:06.899Z,4.57
2023-03-29T04:46:56.382Z,3.90
2023-03-29T04:50:06.613Z,4.83
2023-03-29T04:53:07.442Z,4.17
2023-03-29T04:55:57.956Z,4.93
2023-03-29T04:59:06.570Z,5.10
2023-03-29T05:01:56.801Z,4.70
2023-03-29T05:04:45.529Z,4.67
2023-03-29T05:07:38.198Z,4.40
2023-03-29T05:10:28.345Z,4.43
2023-03-29T05:13:18.135Z,4.20
2023-03-29T05:16:08.906Z,4.20
2023-03-29T05:19:00.190Z,4.17
2023-03-29T05:21:53.043Z,4.33
2023-03-29T05:24:45.000Z,3.33
2023-03-29T05:27:40.407Z,5.00
2023-03-29T05:30:32.173Z,3.83
2023-03-29T05:33:28.703Z,3.37
2023-03-29T05:36:19.162Z,3.50
2023-03-29T05:39:11.368Z,3.77
2023-03-29T05:42:00.798Z,4.03
2023-03-29T05:44:54.651Z,3.67
2023-03-29T05:47:43.409Z,3.60
2023-03-29T05:50:33.796Z,3.27
2023-03-29T05:53:24.760Z,2.40
2023-03-29T05:56:16.454Z,2.80
2023-03-29T05:59:05.526Z,2.70
2023-03-29T06:01:56.425Z,2.60
2023-03-29T06:04:46.040Z,3.33
2023-03-29T06:07:58.121Z,2.53
2023-03-29T06:11:13.707Z,2.40
2023-03-29T06:14:28.929Z,2.87
2023-03-29T06:17:30.942Z,2.60
2023-03-29T06:20:20.093Z,2.77
2023-03-29T06:23:14.522Z,2.70
2023-03-29T06:26:03.326Z,2.80
2023-03-29T06:28:53.178Z,2.63
2023-03-29T06:31:43.078Z,2.60
2023-03-29T06:34:47.107Z,2.90
2023-03-29T06:37:53.664Z,2.70
2023-03-29T06:41:15.424Z,2.90
2023-03-29T06:44:25.516Z,2.57
2023-03-29T06:47:22.862Z,3.03
2023-03-29T06:50:14.955Z,3.83
2023-03-29T06:53:28.116Z,3.80
2023-03-29T06:56:22.659Z,4.60
2023-03-29T06:59:25.110Z,3.10
2023-03-29T07:02:18.645Z,2.73
2023-03-29T07:05:16.749Z,2.40
2023-03-29T07:08:16.326Z,2.53
2023-03-29T07:11:20.373Z,2.60
2023-03-29T07:14:14.826Z,3.20
2023-03-29T07:17:04.159Z,3.00
2023-03-29T07:20:00.015Z,2.80
2023-03-29T07:23:02.671Z,2.93
2023-03-29T07:25:52.831Z,9.27
2023-03-29T07:28:41.940Z,4.90
2023-03-29T07:31:32.917Z,3.00
2023-03-29T07:34:42.537Z,2.83
2023-03-29T07:37:37.944Z,2.70
2023-03-29T07:40:31.718Z,2.93
2023-03-29T07:43:20.467Z,2.37
2023-03-29T07:46:11.250Z,2.97
2023-03-29T07:49:01.003Z,2.80
2023-03-29T07:51:50.172Z,2.37
2023-03-29T07:54:38.941Z,2.30
2023-03-29T07:57:44.643Z,2.90
2023-03-29T08:00:34.606Z,2.50
2023-03-29T08:03:42.254Z,2.47
2023-03-29T08:06:31.632Z,3.10
2023-03-29T08:09:21.159Z,3.20
2023-03-29T08:12:09.940Z,3.43
2023-03-29T08:15:01.873Z,2.50
2023-03-29T08:17:55.003Z,2.20
2023-03-29T08:20:44.236Z,2.30
2023-03-29T08:23:33.484Z,2.03
2023-03-29T08:26:43.467Z,2.37
2023-03-29T08:29:33.180Z,2.07
2023-03-29T08:32:23.412Z,2.30
2023-03-29T08:35:13.003Z,2.17
2023-03-29T08:38:28.764Z,2.30
2023-03-29T08:41:32.576Z,1.80
2023-03-29T08:44:36.224Z,2.50
2023-03-29T08:47:47.019Z,2.10
2023-03-29T08:50:40.643Z,3.00
2023-03-29T08:53:35.133Z,2.33
2023-03-29T08:56:37.301Z,2.47
2023-03-29T08:59:43.054Z,2.53
2023-03-29T09:02:38.045Z,2.20
2023-03-29T09:05:34.310Z,2.08
2023-03-29T09:08:59.513Z,2.20
2023-03-29T09:12:05.053Z,1.80
2023-03-29T09:15:10.237Z,1.90
2023-03-29T09:18:12.509Z,2.10
2023-03-29T09:21:06.513Z,2.10
2023-03-29T09:24:19.124Z,1.97
2023-03-29T09:27:31.417Z,1.23
2023-03-29T09:30:33.027Z,1.65
2023-03-29T09:33:28.041Z,1.40
2023-03-29T09:36:40.184Z,1.30
2023-03-29T09:39:30.350Z,1.50
2023-03-29T09:42:29.760Z,1.67
2023-03-29T09:45:19.513Z,1.58
2023-03-29T09:48:14.602Z,1.70
2023-03-29T09:51:11.970Z,2.15
2023-03-29T09:54:02.469Z,1.58
2023-03-29T09:57:13.830Z,1.70
2023-03-29T10:00:05.835Z,1.92
2023-03-29T10:03:02.976Z,2.00
2023-03-29T10:06:05.228Z,1.50
2023-03-29T10:08:58.883Z,1.45
2023-03-29T10:12:08.380Z,1.77
2023-03-29T10:14:57.910Z,1.40
2023-03-29T10:17:46.567Z,1.50
2023-03-29T10:20:36.543Z,1.30
2023-03-29T10:23:25.202Z,1.35
2023-03-29T10:26:23.860Z,1.45
2023-03-29T10:29:14.300Z,1.88
2023-03-29T10:32:03.081Z,1.33
2023-03-29T10:34:54.054Z,1.70
2023-03-29T10:37:43.781Z,1.52
2023-03-29T10:40:35.181Z,1.50
2023-03-29T10:43:29.728Z,2.10
2023-03-29T10:46:23.933Z,1.63
2023-03-29T10:49:19.794Z,1.88
2023-03-29T10:52:09.197Z,1.98
2023-03-29T10:55:00.437Z,2.42
2023-03-29T10:58:00.577Z,1.60
2023-03-29T11:00:56.754Z,1.70
2023-03-29T11:04:10.008Z,1.50
2023-03-29T11:07:17.732Z,1.95
2023-03-29T11:10:26.427Z,1.90
2023-03-29T11:13:23.462Z,1.75
2023-03-29T11:16:23.413Z,1.58
2023-03-29T11:19:40.080Z,1.50
2023-03-29T11:22:39.901Z,1.50
2023-03-29T11:25:42.696Z,1.90
2023-03-29T11:28:39.490Z,1.45
2023-03-29T11:31:39.172Z,1.73
2023-03-29T11:34:40.061Z,1.80
2023-03-29T11:37:35.568Z,1.95
2023-03-29T11:40:39.427Z,1.58
2023-03-29T11:43:34.279Z,1.15
2023-03-29T11:46:29.831Z,1.50
2023-03-29T11:49:24.132Z,1.52
2023-03-29T11:52:16.766Z,1.45
2023-03-29T11:55:10.848Z,1.38
2023-03-29T11:58:05.280Z,1.63
2023-03-29T12:00:57.923Z,1.45
2023-03-29T12:03:53.795Z,1.45
2023-03-29T12:06:52.355Z,1.63
2023-03-29T12:09:46.745Z,1.40
2023-03-29T12:12:44.321Z,1.25
2023-03-29T12:15:38.011Z,1.48
2023-03-29T12:18:31.312Z,1.60
2023-03-29T12:21:24.257Z,1.40
2023-03-29T12:24:17.121Z,1.30
2023-03-29T12:27:26.799Z,1.27
2023-03-29T12:30:37.029Z,1.70
2023-03-29T12:33:47.742Z,1.40
2023-03-29T12:37:12.446Z,1.25
2023-03-29T12:40:14.288Z,1.40
2023-03-29T12:43:27.490Z,1.50
2023-03-29T12:46:35.834Z,1.60
2023-03-29T12:49:29.746Z,1.30
2023-03-29T12:52:27.453Z,1.40
2023-03-29T12:55:25.597Z,1.45
2023-03-29T12:58:27.260Z,1.70
2023-03-29T13:01:25.260Z,1.70
2023-03-29T13:04:20.284Z,1.42
2023-03-29T13:07:15.314Z,1.80
2023-03-29T13:10:10.379Z,1.50
2023-03-29T13:13:12.319Z,1.50
2023-03-29T13:16:20.449Z,1.65
2023-03-29T13:19:22.856Z,1.20
2023-03-29T13:22:23.647Z,1.48
2023-03-29T13:25:31.621Z,1.33
2023-03-29T13:28:27.406Z,1.40
2023-03-29T13:31:29.526Z,1.20
2023-03-29T13:34:31.983Z,1.42
2023-03-29T13:37:32.151Z,1.60
2023-03-29T13:40:34.391Z,1.45
2023-03-29T13:43:33.116Z,1.35
2023-03-29T13:46:36.446Z,1.48
2023-03-29T13:49:27.625Z,1.30
2023-03-29T13:52:22.301Z,1.60
2023-03-29T13:55:18.556Z,1.48
2023-03-29T13:58:15.020Z,1.60
2023-03-29T14:01:11.719Z,1.27
2023-03-29T14:04:02.071Z,1.70
2023-03-29T14:06:53.263Z,1.83
2023-03-29T14:09:46.414Z,1.48
2023-03-29T14:12:41.898Z,2.00
2023-03-29T14:15:43.510Z,1.95
2023-03-29T14:18:38.200Z,1.83
2023-03-29T14:21:27.186Z,1.30
2023-03-29T14:24:21.711Z,2.13
2023-03-29T14:27:13.565Z,1.33
2023-03-29T14:30:03.275Z,1.48
2023-03-29T14:32:52.448Z,1.60
2023-03-29T14:35:43.397Z,1.50
2023-03-29T14:38:33.122Z,1.67
2023-03-29T14:41:24.385Z,1.50
2023-03-29T14:44:15.454Z,1.52
2023-03-29T14:47:05.650Z,1.63
2023-03-29T14:49:57.370Z,1.48
2023-03-29T14:52:53.081Z,2.10
2023-03-29T14:55:42.923Z,1.65
2023-03-29T14:58:34.736Z,1.52
2023-03-29T15:01:26.123Z,2.20
2023-03-29T15:04:15.800Z,1.70
2023-03-29T15:07:05.628Z,1.80
2023-03-29T15:09:58.404Z,1.98
2023-03-29T15:12:47.594Z,1.50
2023-03-29T15:15:39.242Z,2.13
2023-03-29T15:18:32.704Z,2.58
2023-03-29T15:21:23.177Z,2.00
2023-03-29T15:24:22.022Z,1.83
2023-03-29T15:27:16.377Z,2.40
2023-03-29T15:30:14.090Z,2.00
2023-03-29T15:33:22.483Z,3.45
2023-03-29T15:36:13.574Z,2.10
2023-03-29T15:39:02.773Z,1.60
2023-03-29T15:41:54.050Z,1.65
2023-03-29T15:44:44.248Z,3.60
2023-03-29T15:47:32.916Z,2.53
2023-03-29T15:50:22.412Z,5.88
2023-03-29T15:53:15.572Z,1.77
2023-03-29T15:56:07.082Z,1.45
2023-03-29T15:58:57.053Z,1.65
2023-03-29T16:01:47.525Z,1.90
2023-03-29T16:04:36.634Z,1.38
2023-03-29T16:07:25.366Z,1.60
2023-03-29T16:10:14.959Z,1.98
2023-03-29T16:13:03.692Z,1.95
2023-03-29T16:15:52.718Z,2.03
2023-03-29T16:18:42.920Z,2.03
2023-03-29T16:21:33.052Z,2.53
2023-03-29T16:24:24.130Z,4.00
2023-03-29T16:27:12.816Z,3.33
2023-03-29T16:30:02.261Z,3.00
2023-03-29T16:32:50.910Z,2.05
2023-03-29T16:35:41.444Z,1.60
2023-03-29T16:38:30.091Z,1.60
2023-03-29T16:41:19.635Z,1.40
2023-03-29T16:44:08.667Z,1.23
2023-03-29T16:46:58.952Z,1.20
2023-03-29T16:49:49.060Z,1.30
2023-03-29T16:52:39.010Z,1.30
2023-03-29T16:55:28.773Z,1.40
2023-03-29T16:58:17.400Z,1.35
2023-03-29T17:01:10.930Z,1.55
2023-03-29T17:03:59.611Z,7.70
2023-03-29T17:06:49.084Z,8.27
2023-03-29T17:09:40.108Z,2.65
2023-03-29T17:12:28.708Z,2.50
2023-03-29T17:15:18.550Z,2.40
2023-03-29T17:18:07.311Z,4.53
2023-03-29T17:20:59.166Z,7.97
2023-03-29T17:23:47.824Z,7.43
2023-03-29T17:26:38.631Z,5.75
2023-03-29T17:29:27.296Z,4.45
2023-03-29T17:32:16.314Z,6.88
2023-03-29T17:35:05.722Z,8.98
2023-03-29T17:37:54.710Z,9.80
2023-03-29T17:40:43.345Z,5.75
2023-03-29T17:43:34.121Z,3.95
2023-03-29T17:46:23.604Z,2.83
2023-03-29T17:49:13.608Z,2.63
2023-03-29T17:52:02.593Z,3.63
2023-03-29T17:54:51.414Z,3.05
2023-03-29T17:57:40.078Z,3.25
2023-03-29T18:00:31.148Z,3.22
2023-03-29T18:03:19.874Z,3.00
2023-03-29T18:06:09.445Z,2.80
2023-03-29T18:09:01.313Z,3.45
2023-03-29T18:11:50.055Z,6.15
2023-03-29T18:14:38.704Z,12.73
2023-03-29T18:17:29.780Z,17.65
2023-03-29T18:20:18.764Z,6.32
2023-03-29T18:23:08.180Z,28.98
2023-03-29T18:26:00.245Z,5.80
2023-03-29T18:28:49.902Z,5.88
2023-03-29T18:31:38.559Z,8.02
2023-03-29T18:34:30.975Z,11.00
2023-03-29T18:37:19.680Z,10.38
2023-03-29T18:40:10.698Z,4.70
2023-03-29T18:42:59.318Z,3.40
2023-03-29T18:45:48.904Z,3.67
2023-03-29T18:48:39.236Z,4.20
2023-03-29T18:51:30.580Z,6.93
2023-03-29T18:54:19.402Z,4.90
2023-03-29T18:57:08.075Z,4.30
2023-03-29T18:59:56.798Z,5.20
2023-03-29T19:02:46.809Z,31.15
2023-03-29T19:05:39.594Z,14.00
2023-03-29T19:08:30.060Z,12.88
2023-03-29T19:11:21.683Z,6.07
2023-03-29T19:14:15.608Z,3.33
2023-03-29T19:17:05.144Z,2.00
2023-03-29T19:19:54.247Z,2.55
2023-03-29T19:22:43.484Z,2.45
2023-03-29T19:25:33.808Z,6.93
2023-03-29T19:28:22.764Z,3.47
2023-03-29T19:31:12.334Z,2.90
2023-03-29T19:34:01.341Z,6.93
2023-03-29T19:36:50.122Z,4.65
2023-03-29T19:39:41.454Z,9.02
2023-03-29T19:42:31.463Z,5.03
2023-03-29T19:45:24.416Z,6.57
2023-03-29T19:48:21.915Z,4.25
2023-03-29T19:51:12.529Z,3.05
2023-03-29T19:54:01.173Z,5.50
2023-03-29T19:56:52.396Z,4.03
2023-03-29T19:59:43.036Z,3.50
2023-03-29T20:02:32.150Z,2.95
2023-03-29T20:05:22.051Z,2.90
2023-03-29T20:08:10.986Z,3.72
2023-03-29T20:11:00.337Z,3.17
2023-03-29T20:13:49.023Z,2.67
2023-03-29T20:16:40.405Z,3.20
2023-03-29T20:19:29.988Z,2.78
2023-03-29T20:22:19.363Z,2.88
2023-03-29T20:25:09.293Z,2.53
2023-03-29T20:27:59.623Z,3.25
2023-03-29T20:30:51.154Z,2.85
2023-03-29T20:33:42.897Z,3.78
2023-03-29T20:36:31.698Z,3.30
2023-03-29T20:39:25.157Z,3.83
2023-03-29T20:42:15.673Z,4.40
2023-03-29T20:45:04.750Z,5.70
2023-03-29T20:47:58.082Z,4.15
2023-03-29T20:50:48.350Z,6.88
2023-03-29T20:53:36.987Z,7.47
2023-03-29T20:56:26.400Z,8.32
2023-03-29T20:59:15.739Z,43.42
2023-03-29T21:02:04.904Z,38.45
2023-03-29T21:04:54.745Z,17.23
2023-03-29T21:07:48.012Z,7.18
2023-03-29T21:10:36.992Z,4.00
2023-03-29T21:13:26.043Z,5.70
2023-03-29T21:16:15.573Z,12.38
2023-03-29T21:19:04.285Z,9.27
2023-03-29T21:21:52.977Z,5.97
2023-03-29T21:24:43.399Z,3.88
2023-03-29T21:27:32.025Z,7.53
2023-03-29T21:30:21.615Z,4.90
2023-03-29T21:33:10.404Z,3.78
2023-03-29T21:35:59.644Z,4.05
2023-03-29T21:38:48.384Z,2.67
2023-03-29T21:41:39.150Z,2.80
2023-03-29T21:44:27.777Z,3.92
2023-03-29T21:47:17.309Z,3.38
2023-03-29T21:50:06.791Z,3.10
2023-03-29T21:52:56.148Z,2.88
2023-03-29T21:55:45.003Z,2.78
2023-03-29T21:58:35.999Z,6.32
2023-03-29T22:01:24.703Z,5.78
2023-03-29T22:04:22.532Z,3.47
2023-03-29T22:07:18.503Z,2.55
2023-03-29T22:10:09.669Z,3.60
2023-03-29T22:12:58.284Z,2.65
2023-03-29T22:15:50.332Z,2.88
2023-03-29T22:18:46.780Z,2.50
2023-03-29T22:21:37.887Z,2.75
2023-03-29T22:24:26.575Z,2.92
2023-03-29T22:27:15.477Z,2.85
2023-03-29T22:30:06.191Z,2.67
2023-03-29T22:32:57.822Z,2.50
2023-03-29T22:35:46.469Z,2.78
2023-03-29T22:38:35.614Z,2.63
2023-03-29T22:41:26.425Z,2.83
2023-03-29T22:44:15.040Z,2.83
2023-03-29T22:47:05.327Z,2.17
2023-03-29T22:49:55.427Z,2.83
2023-03-29T22:52:46.091Z,2.60
2023-03-29T22:55:34.688Z,2.92
2023-03-29T22:58:24.754Z,2.95
2023-03-29T23:01:13.701Z,2.53
2023-03-29T23:04:03.317Z,2.75
2023-03-29T23:06:53.706Z,2.97
2023-03-29T23:09:42.323Z,2.70
2023-03-29T23:12:31.369Z,3.05
2023-03-29T23:15:23.248Z,2.65
2023-03-29T23:18:13.166Z,3.47
2023-03-29T23:21:02.923Z,3.10
2023-03-29T23:23:53.096Z,3.67
2023-03-29T23:26:43.549Z,3.22
2023-03-29T23:29:32.272Z,3.20
2023-03-29T23:32:21.338Z,2.78
2023-03-29T23:35:10.948Z,3.33
2023-03-29T23:38:00.113Z,3.20
2023-03-29T23:40:55.373Z,3.40
2023-03-29T23:43:48.138Z,3.13
2023-03-29T23:46:36.809Z,3.17
2023-03-29T23:49:26.431Z,3.58
2023-03-29T23:52:15.240Z,3.33
2023-03-29T23:55:06.124Z,2.80
2023-03-29T23:57:56.057Z,3.03
